Bruneau Valley, Idaho
Current Conditions -  °F | °C
As of 3:58 PM on Monday 20 Oct 2014 (Local Time) from KMUO Reporting Station
Scattered Clouds Scattered Clouds  
Wind Chill: 80°   Ceiling: Unl
Heat Index: 80°   Visibility: 10mi
Dew Point: 36°   Wind: 5mph
Humidity: 21%   Direction: 70°ENE
Pressure: 29.76"   Gusts: NA
Location:  42.4532°N, 115.47°W
Report Text: KMUO 202158Z 07004KT 10SM FEW050 SCT080 27/02 A2976 RMK AO2A SLP056 T02660022
Loading
Personal Weather Stations






























Interactive Weather Map
Tropical Storm Tracking
New forecast layout! Learn more

10-Day Weather Forecast

Advertisements
Track Severe Weather on mobile